sensor_id;sensor_type;location;lat;lon;timestamp;temperature;humidity
15900;DHT22;8048;50.644;6.184;2023-10-08T00:01:19;15.70;99.60
15900;DHT22;8048;50.644;6.184;2023-10-08T00:03:48;15.70;99.60
15900;DHT22;8048;50.644;6.184;2023-10-08T00:06:15;15.60;99.70
15900;DHT22;8048;50.644;6.184;2023-10-08T00:08:41;15.60;99.60
15900;DHT22;8048;50.644;6.184;2023-10-08T00:11:06;15.60;99.80
15900;DHT22;8048;50.644;6.184;2023-10-08T00:13:33;15.50;99.80
15900;DHT22;8048;50.644;6.184;2023-10-08T00:16:06;15.50;99.80
15900;DHT22;8048;50.644;6.184;2023-10-08T00:18:35;15.50;99.90
15900;DHT22;8048;50.644;6.184;2023-10-08T00:21:01;15.50;99.90
15900;DHT22;8048;50.644;6.184;2023-10-08T00:23:38;15.50;99.90
15900;DHT22;8048;50.644;6.184;2023-10-08T00:26:24;15.50;99.90
15900;DHT22;8048;50.644;6.184;2023-10-08T00:28:55;15.50;99.90
15900;DHT22;8048;50.644;6.184;2023-10-08T00:31:21;15.40;99.90
15900;DHT22;8048;50.644;6.184;2023-10-08T00:33:51;15.40;99.90
15900;DHT22;8048;50.644;6.184;2023-10-08T00:36:17;15.30;99.90
15900;DHT22;8048;50.644;6.184;2023-10-08T00:38:44;15.30;99.90
15900;DHT22;8048;50.644;6.184;2023-10-08T00:41:13;15.20;99.90
15900;DHT22;8048;50.644;6.184;2023-10-08T00:43:47;15.10;99.90
15900;DHT22;8048;50.644;6.184;2023-10-08T00:46:12;15.10;99.90
15900;DHT22;8048;50.644;6.184;2023-10-08T00:48:51;15.10;99.90
15900;DHT22;8048;50.644;6.184;2023-10-08T00:51:20;15.10;99.90
15900;DHT22;8048;50.644;6.184;2023-10-08T00:53:57;15.00;99.90
15900;DHT22;8048;50.644;6.184;2023-10-08T00:56:29;15.10;99.90
15900;DHT22;8048;50.644;6.184;2023-10-08T00:59:13;15.00;99.90
15900;DHT22;8048;50.644;6.184;2023-10-08T01:01:46;15.00;99.90
15900;DHT22;8048;50.644;6.184;2023-10-08T01:04:20;15.00;99.90
15900;DHT22;8048;50.644;6.184;2023-10-08T01:06:53;14.90;99.90
15900;DHT22;8048;50.644;6.184;2023-10-08T01:09:26;14.90;99.90
15900;DHT22;8048;50.644;6.184;2023-10-08T01:12:26;14.80;99.90
15900;DHT22;8048;50.644;6.184;2023-10-08T01:14:59;14.70;99.90
15900;DHT22;8048;50.644;6.184;2023-10-08T01:18:04;14.70;99.90
15900;DHT22;8048;50.644;6.184;2023-10-08T01:20:41;14.70;99.90
15900;DHT22;8048;50.644;6.184;2023-10-08T01:23:12;14.70;99.90
15900;DHT22;8048;50.644;6.184;2023-10-08T01:25:49;14.70;99.90
15900;DHT22;8048;50.644;6.184;2023-10-08T01:28:17;14.70;99.90
15900;DHT22;8048;50.644;6.184;2023-10-08T01:30:55;14.60;99.90
15900;DHT22;8048;50.644;6.184;2023-10-08T01:33:23;14.60;99.90
15900;DHT22;8048;50.644;6.184;2023-10-08T01:35:53;14.50;99.90
15900;DHT22;8048;50.644;6.184;2023-10-08T01:38:19;14.50;99.90
15900;DHT22;8048;50.644;6.184;2023-10-08T01:40:49;14.40;99.90
15900;DHT22;8048;50.644;6.184;2023-10-08T01:43:17;14.50;99.90
15900;DHT22;8048;50.644;6.184;2023-10-08T01:45:43;14.50;99.90
15900;DHT22;8048;50.644;6.184;2023-10-08T01:48:13;14.40;99.90
15900;DHT22;8048;50.644;6.184;2023-10-08T01:50:39;14.50;99.90
15900;DHT22;8048;50.644;6.184;2023-10-08T01:53:05;14.40;99.90
15900;DHT22;8048;50.644;6.184;2023-10-08T01:55:37;14.40;99.90
15900;DHT22;8048;50.644;6.184;2023-10-08T01:58:16;14.40;99.90
15900;DHT22;8048;50.644;6.184;2023-10-08T02:00:46;14.30;99.90
15900;DHT22;8048;50.644;6.184;2023-10-08T02:03:13;14.30;99.90
15900;DHT22;8048;50.644;6.184;2023-10-08T02:05:43;14.30;99.90
15900;DHT22;8048;50.644;6.184;2023-10-08T02:08:11;14.20;99.90
15900;DHT22;8048;50.644;6.184;2023-10-08T02:10:38;14.10;99.90
15900;DHT22;8048;50.644;6.184;2023-10-08T02:13:06;14.10;99.90
15900;DHT22;8048;50.644;6.184;2023-10-08T02:15:31;14.10;99.90
15900;DHT22;8048;50.644;6.184;2023-10-08T02:17:57;14.10;99.90
15900;DHT22;8048;50.644;6.184;2023-10-08T02:20:24;14.10;99.90
15900;DHT22;8048;50.644;6.184;2023-10-08T02:22:49;14.10;99.90
15900;DHT22;8048;50.644;6.184;2023-10-08T02:25:15;14.00;99.90
15900;DHT22;8048;50.644;6.184;2023-10-08T02:27:41;14.00;99.90
15900;DHT22;8048;50.644;6.184;2023-10-08T02:30:07;13.90;99.90
15900;DHT22;8048;50.644;6.184;2023-10-08T02:32:35;13.90;99.90
15900;DHT22;8048;50.644;6.184;2023-10-08T02:35:02;13.80;99.90
15900;DHT22;8048;50.644;6.184;2023-10-08T02:37:28;13.80;99.90
15900;DHT22;8048;50.644;6.184;2023-10-08T02:39:53;13.80;99.90
15900;DHT22;8048;50.644;6.184;2023-10-08T02:42:20;13.80;99.90
15900;DHT22;8048;50.644;6.184;2023-10-08T02:44:47;13.70;99.90
15900;DHT22;8048;50.644;6.184;2023-10-08T02:47:12;13.70;99.90
15900;DHT22;8048;50.644;6.184;2023-10-08T02:49:47;13.70;99.90
15900;DHT22;8048;50.644;6.184;2023-10-08T02:52:17;13.80;99.90
15900;DHT22;8048;50.644;6.184;2023-10-08T02:54:43;13.70;99.90
15900;DHT22;8048;50.644;6.184;2023-10-08T02:57:08;13.80;99.90
15900;DHT22;8048;50.644;6.184;2023-10-08T02:59:40;13.80;99.90
15900;DHT22;8048;50.644;6.184;2023-10-08T03:02:07;13.80;99.90
15900;DHT22;8048;50.644;6.184;2023-10-08T03:04:42;13.70;99.90
15900;DHT22;8048;50.644;6.184;2023-10-08T03:07:13;13.70;99.90
15900;DHT22;8048;50.644;6.184;2023-10-08T03:09:47;13.70;99.90
15900;DHT22;8048;50.644;6.184;2023-10-08T03:12:15;13.70;99.90
15900;DHT22;8048;50.644;6.184;2023-10-08T03:14:42;13.70;99.90
15900;DHT22;8048;50.644;6.184;2023-10-08T03:17:15;13.60;99.90
15900;DHT22;8048;50.644;6.184;2023-10-08T03:19:46;13.60;99.90
15900;DHT22;8048;50.644;6.184;2023-10-08T03:22:12;13.60;99.90
15900;DHT22;8048;50.644;6.184;2023-10-08T03:24:37;13.60;99.90
15900;DHT22;8048;50.644;6.184;2023-10-08T03:27:05;13.50;99.90
15900;DHT22;8048;50.644;6.184;2023-10-08T03:29:35;13.50;99.90
15900;DHT22;8048;50.644;6.184;2023-10-08T03:32:11;13.50;99.90
15900;DHT22;8048;50.644;6.184;2023-10-08T03:34:47;13.50;99.90
15900;DHT22;8048;50.644;6.184;2023-10-08T03:37:15;13.50;99.90
15900;DHT22;8048;50.644;6.184;2023-10-08T03:39:50;13.50;99.90
15900;DHT22;8048;50.644;6.184;2023-10-08T03:42:34;13.50;99.90
15900;DHT22;8048;50.644;6.184;2023-10-08T03:45:06;13.40;99.90
15900;DHT22;8048;50.644;6.184;2023-10-08T03:47:38;13.40;99.90
15900;DHT22;8048;50.644;6.184;2023-10-08T03:50:07;13.40;99.90
15900;DHT22;8048;50.644;6.184;2023-10-08T03:52:35;13.40;99.90
15900;DHT22;8048;50.644;6.184;2023-10-08T03:55:06;13.40;99.90
15900;DHT22;8048;50.644;6.184;2023-10-08T03:57:41;13.40;99.90
15900;DHT22;8048;50.644;6.184;2023-10-08T04:00:11;13.40;99.90
15900;DHT22;8048;50.644;6.184;2023-10-08T04:02:45;13.50;99.90
15900;DHT22;8048;50.644;6.184;2023-10-08T04:05:22;13.60;99.90
15900;DHT22;8048;50.644;6.184;2023-10-08T04:07:53;13.60;99.90
15900;DHT22;8048;50.644;6.184;2023-10-08T04:10:26;13.50;99.90
15900;DHT22;8048;50.644;6.184;2023-10-08T04:13:14;13.50;99.90
15900;DHT22;8048;50.644;6.184;2023-10-08T04:15:41;13.50;99.90
15900;DHT22;8048;50.644;6.184;2023-10-08T04:18:08;13.50;99.90
15900;DHT22;8048;50.644;6.184;2023-10-08T04:20:34;13.50;99.90
15900;DHT22;8048;50.644;6.184;2023-10-08T04:23:08;13.50;99.90
15900;DHT22;8048;50.644;6.184;2023-10-08T04:25:43;13.50;99.90
15900;DHT22;8048;50.644;6.184;2023-10-08T04:28:09;13.40;99.90
15900;DHT22;8048;50.644;6.184;2023-10-08T04:30:40;13.40;99.90
15900;DHT22;8048;50.644;6.184;2023-10-08T04:33:08;13.40;99.90
15900;DHT22;8048;50.644;6.184;2023-10-08T04:35:37;13.40;99.90
15900;DHT22;8048;50.644;6.184;2023-10-08T04:38:17;13.40;99.90
15900;DHT22;8048;50.644;6.184;2023-10-08T04:40:44;13.40;99.90
15900;DHT22;8048;50.644;6.184;2023-10-08T04:43:17;13.30;99.90
15900;DHT22;8048;50.644;6.184;2023-10-08T04:45:59;13.40;99.90
15900;DHT22;8048;50.644;6.184;2023-10-08T04:48:30;13.30;99.90
15900;DHT22;8048;50.644;6.184;2023-10-08T04:50:59;13.30;99.90
15900;DHT22;8048;50.644;6.184;2023-10-08T04:53:29;13.20;99.90
15900;DHT22;8048;50.644;6.184;2023-10-08T04:56:03;13.20;99.90
15900;DHT22;8048;50.644;6.184;2023-10-08T04:58:39;13.20;99.90
15900;DHT22;8048;50.644;6.184;2023-10-08T05:01:07;13.30;99.90
15900;DHT22;8048;50.644;6.184;2023-10-08T05:03:55;13.30;99.90
15900;DHT22;8048;50.644;6.184;2023-10-08T05:06:30;13.30;99.90
15900;DHT22;8048;50.644;6.184;2023-10-08T05:09:06;13.30;99.90
15900;DHT22;8048;50.644;6.184;2023-10-08T05:11:39;13.40;99.90
15900;DHT22;8048;50.644;6.184;2023-10-08T05:14:21;13.30;99.90
15900;DHT22;8048;50.644;6.184;2023-10-08T05:19:43;13.20;99.90
15900;DHT22;8048;50.644;6.184;2023-10-08T05:22:27;13.20;99.90
15900;DHT22;8048;50.644;6.184;2023-10-08T05:24:53;13.10;99.90
15900;DHT22;8048;50.644;6.184;2023-10-08T05:27:40;13.10;99.90
15900;DHT22;8048;50.644;6.184;2023-10-08T05:32:42;13.10;99.90
15900;DHT22;8048;50.644;6.184;2023-10-08T05:35:35;13.10;99.90
15900;DHT22;8048;50.644;6.184;2023-10-08T05:38:23;13.00;99.90
15900;DHT22;8048;50.644;6.184;2023-10-08T05:40:55;13.00;99.90
15900;DHT22;8048;50.644;6.184;2023-10-08T05:43:30;13.00;99.90
15900;DHT22;8048;50.644;6.184;2023-10-08T05:45:59;13.10;99.90
15900;DHT22;8048;50.644;6.184;2023-10-08T05:48:44;13.10;99.90
15900;DHT22;8048;50.644;6.184;2023-10-08T05:51:16;13.10;99.90
15900;DHT22;8048;50.644;6.184;2023-10-08T05:53:59;13.00;99.90
15900;DHT22;8048;50.644;6.184;2023-10-08T05:56:28;12.90;99.90
15900;DHT22;8048;50.644;6.184;2023-10-08T05:58:54;12.90;99.90
15900;DHT22;8048;50.644;6.184;2023-10-08T06:01:39;12.90;99.90
15900;DHT22;8048;50.644;6.184;2023-10-08T06:04:06;12.90;99.90
15900;DHT22;8048;50.644;6.184;2023-10-08T06:07:07;12.90;99.90
15900;DHT22;8048;50.644;6.184;2023-10-08T06:09:46;12.80;99.90
15900;DHT22;8048;50.644;6.184;2023-10-08T06:12:27;12.80;99.90
15900;DHT22;8048;50.644;6.184;2023-10-08T06:14:55;12.80;99.90
15900;DHT22;8048;50.644;6.184;2023-10-08T06:17:34;12.70;99.90
15900;DHT22;8048;50.644;6.184;2023-10-08T06:20:21;12.70;99.90
15900;DHT22;8048;50.644;6.184;2023-10-08T06:22:53;12.70;99.90
15900;DHT22;8048;50.644;6.184;2023-10-08T06:25:24;12.70;99.90
15900;DHT22;8048;50.644;6.184;2023-10-08T06:27:50;12.80;99.90
15900;DHT22;8048;50.644;6.184;2023-10-08T06:30:21;12.70;99.90
15900;DHT22;8048;50.644;6.184;2023-10-08T06:32:47;12.70;99.90
15900;DHT22;8048;50.644;6.184;2023-10-08T06:35:13;12.70;99.90
15900;DHT22;8048;50.644;6.184;2023-10-08T06:37:44;12.70;99.90
15900;DHT22;8048;50.644;6.184;2023-10-08T06:40:11;12.80;99.90
15900;DHT22;8048;50.644;6.184;2023-10-08T06:42:57;12.80;99.90
15900;DHT22;8048;50.644;6.184;2023-10-08T06:45:22;12.80;99.90
15900;DHT22;8048;50.644;6.184;2023-10-08T06:47:48;12.90;99.90
15900;DHT22;8048;50.644;6.184;2023-10-08T06:50:15;12.90;99.90
15900;DHT22;8048;50.644;6.184;2023-10-08T06:52:41;12.90;99.90
15900;DHT22;8048;50.644;6.184;2023-10-08T06:55:09;12.90;99.90
15900;DHT22;8048;50.644;6.184;2023-10-08T06:57:37;13.00;99.90
15900;DHT22;8048;50.644;6.184;2023-10-08T07:00:04;13.00;99.90
15900;DHT22;8048;50.644;6.184;2023-10-08T07:02:38;13.00;99.90
15900;DHT22;8048;50.644;6.184;2023-10-08T07:05:05;13.10;99.90
15900;DHT22;8048;50.644;6.184;2023-10-08T07:07:34;13.00;99.90
15900;DHT22;8048;50.644;6.184;2023-10-08T07:10:05;13.00;99.90
15900;DHT22;8048;50.644;6.184;2023-10-08T07:12:36;13.00;99.90
15900;DHT22;8048;50.644;6.184;2023-10-08T07:15:01;13.10;99.90
15900;DHT22;8048;50.644;6.184;2023-10-08T07:17:30;13.10;99.90
15900;DHT22;8048;50.644;6.184;2023-10-08T07:20:06;13.20;99.90
15900;DHT22;8048;50.644;6.184;2023-10-08T07:22:39;13.20;99.90
15900;DHT22;8048;50.644;6.184;2023-10-08T07:25:08;13.30;99.90
15900;DHT22;8048;50.644;6.184;2023-10-08T07:27:34;13.40;99.90
15900;DHT22;8048;50.644;6.184;2023-10-08T07:30:03;13.40;99.90
15900;DHT22;8048;50.644;6.184;2023-10-08T07:32:38;13.40;99.90
15900;DHT22;8048;50.644;6.184;2023-10-08T07:35:05;13.60;99.90
15900;DHT22;8048;50.644;6.184;2023-10-08T07:37:46;13.70;99.90
15900;DHT22;8048;50.644;6.184;2023-10-08T07:40:13;13.80;99.90
15900;DHT22;8048;50.644;6.184;2023-10-08T07:42:39;13.90;99.90
15900;DHT22;8048;50.644;6.184;2023-10-08T07:45:05;14.00;99.90
15900;DHT22;8048;50.644;6.184;2023-10-08T07:47:31;14.10;99.90
15900;DHT22;8048;50.644;6.184;2023-10-08T07:49:57;14.20;99.90
15900;DHT22;8048;50.644;6.184;2023-10-08T07:52:24;14.30;99.90
15900;DHT22;8048;50.644;6.184;2023-10-08T07:54:49;14.40;99.90
15900;DHT22;8048;50.644;6.184;2023-10-08T07:57:16;14.50;99.90
15900;DHT22;8048;50.644;6.184;2023-10-08T07:59:51;14.70;99.90
15900;DHT22;8048;50.644;6.184;2023-10-08T08:02:20;14.80;99.90
15900;DHT22;8048;50.644;6.184;2023-10-08T08:04:52;14.90;99.90
15900;DHT22;8048;50.644;6.184;2023-10-08T08:07:18;15.10;99.90
15900;DHT22;8048;50.644;6.184;2023-10-08T08:09:52;15.20;99.90
15900;DHT22;8048;50.644;6.184;2023-10-08T08:12:18;15.30;99.90
15900;DHT22;8048;50.644;6.184;2023-10-08T08:14:45;15.40;99.90
15900;DHT22;8048;50.644;6.184;2023-10-08T08:17:10;15.50;99.90
15900;DHT22;8048;50.644;6.184;2023-10-08T08:19:47;15.70;99.90
15900;DHT22;8048;50.644;6.184;2023-10-08T08:22:13;15.90;99.90
15900;DHT22;8048;50.644;6.184;2023-10-08T08:24:53;16.00;99.90
15900;DHT22;8048;50.644;6.184;2023-10-08T08:27:21;16.30;99.90
15900;DHT22;8048;50.644;6.184;2023-10-08T08:29:51;16.50;99.90
15900;DHT22;8048;50.644;6.184;2023-10-08T08:32:21;16.60;99.90
15900;DHT22;8048;50.644;6.184;2023-10-08T08:34:47;16.70;99.90
15900;DHT22;8048;50.644;6.184;2023-10-08T08:37:16;16.90;99.90
15900;DHT22;8048;50.644;6.184;2023-10-08T08:39:42;17.10;99.90
15900;DHT22;8048;50.644;6.184;2023-10-08T08:42:08;17.30;99.90
15900;DHT22;8048;50.644;6.184;2023-10-08T08:44:36;17.50;99.90
15900;DHT22;8048;50.644;6.184;2023-10-08T08:47:13;17.70;99.90
15900;DHT22;8048;50.644;6.184;2023-10-08T08:49:45;17.90;99.90
15900;DHT22;8048;50.644;6.184;2023-10-08T08:52:11;18.30;99.90
15900;DHT22;8048;50.644;6.184;2023-10-08T08:54:38;18.60;99.90
15900;DHT22;8048;50.644;6.184;2023-10-08T08:57:04;18.80;99.90
15900;DHT22;8048;50.644;6.184;2023-10-08T08:59:32;19.00;99.90
15900;DHT22;8048;50.644;6.184;2023-10-08T09:01:58;19.30;99.90
15900;DHT22;8048;50.644;6.184;2023-10-08T09:04:31;19.50;99.90
15900;DHT22;8048;50.644;6.184;2023-10-08T09:06:58;19.70;99.90
15900;DHT22;8048;50.644;6.184;2023-10-08T09:09:31;20.00;99.70
15900;DHT22;8048;50.644;6.184;2023-10-08T09:11:57;20.30;99.80
15900;DHT22;8048;50.644;6.184;2023-10-08T09:14:24;20.60;99.90
15900;DHT22;8048;50.644;6.184;2023-10-08T09:16:57;21.10;99.90
15900;DHT22;8048;50.644;6.184;2023-10-08T09:19:25;21.60;99.00
15900;DHT22;8048;50.644;6.184;2023-10-08T09:22:04;22.00;97.00
15900;DHT22;8048;50.644;6.184;2023-10-08T09:24:49;22.20;96.90
15900;DHT22;8048;50.644;6.184;2023-10-08T09:27:18;22.40;96.60
15900;DHT22;8048;50.644;6.184;2023-10-08T09:29:46;22.70;97.60
15900;DHT22;8048;50.644;6.184;2023-10-08T09:32:13;23.00;96.70
15900;DHT22;8048;50.644;6.184;2023-10-08T09:34:39;23.20;96.00
15900;DHT22;8048;50.644;6.184;2023-10-08T09:37:05;23.50;97.30
15900;DHT22;8048;50.644;6.184;2023-10-08T09:39:33;23.90;95.90
15900;DHT22;8048;50.644;6.184;2023-10-08T09:42:02;24.20;94.60
15900;DHT22;8048;50.644;6.184;2023-10-08T09:44:28;24.50;93.50
15900;DHT22;8048;50.644;6.184;2023-10-08T09:47:02;24.80;94.60
15900;DHT22;8048;50.644;6.184;2023-10-08T09:49:38;25.10;93.00
15900;DHT22;8048;50.644;6.184;2023-10-08T09:52:08;25.10;91.90
15900;DHT22;8048;50.644;6.184;2023-10-08T09:54:59;25.30;92.50
15900;DHT22;8048;50.644;6.184;2023-10-08T09:57:25;25.60;92.10
15900;DHT22;8048;50.644;6.184;2023-10-08T09:59:52;25.80;91.20
15900;DHT22;8048;50.644;6.184;2023-10-08T10:02:19;26.10;90.60
15900;DHT22;8048;50.644;6.184;2023-10-08T10:04:50;26.30;87.00
15900;DHT22;8048;50.644;6.184;2023-10-08T10:07:16;26.50;90.80
15900;DHT22;8048;50.644;6.184;2023-10-08T10:09:46;26.60;90.30
15900;DHT22;8048;50.644;6.184;2023-10-08T10:12:12;26.90;90.60
15900;DHT22;8048;50.644;6.184;2023-10-08T10:14:42;27.20;90.00
15900;DHT22;8048;50.644;6.184;2023-10-08T10:17:10;27.40;88.60
15900;DHT22;8048;50.644;6.184;2023-10-08T10:19:39;27.70;88.10
15900;DHT22;8048;50.644;6.184;2023-10-08T10:22:13;28.00;86.60
15900;DHT22;8048;50.644;6.184;2023-10-08T10:24:41;28.30;84.10
15900;DHT22;8048;50.644;6.184;2023-10-08T10:27:12;28.60;84.10
15900;DHT22;8048;50.644;6.184;2023-10-08T10:29:40;28.80;85.00
15900;DHT22;8048;50.644;6.184;2023-10-08T10:32:10;28.80;81.10
15900;DHT22;8048;50.644;6.184;2023-10-08T10:34:38;29.10;80.50
15900;DHT22;8048;50.644;6.184;2023-10-08T10:37:04;29.40;81.50
15900;DHT22;8048;50.644;6.184;2023-10-08T10:39:55;29.70;79.90
15900;DHT22;8048;50.644;6.184;2023-10-08T10:42:22;29.80;79.60
15900;DHT22;8048;50.644;6.184;2023-10-08T10:44:49;30.10;79.10
15900;DHT22;8048;50.644;6.184;2023-10-08T10:47:15;30.20;80.30
15900;DHT22;8048;50.644;6.184;2023-10-08T10:49:42;30.20;79.30
15900;DHT22;8048;50.644;6.184;2023-10-08T10:52:25;30.40;78.30
15900;DHT22;8048;50.644;6.184;2023-10-08T10:55:02;30.60;76.30
15900;DHT22;8048;50.644;6.184;2023-10-08T10:57:52;30.90;79.50
15900;DHT22;8048;50.644;6.184;2023-10-08T11:00:37;31.10;75.90
15900;DHT22;8048;50.644;6.184;2023-10-08T11:03:04;30.70;74.00
15900;DHT22;8048;50.644;6.184;2023-10-08T11:05:37;30.60;78.60
15900;DHT22;8048;50.644;6.184;2023-10-08T11:08:04;30.90;75.30
15900;DHT22;8048;50.644;6.184;2023-10-08T11:10:32;31.10;77.50
15900;DHT22;8048;50.644;6.184;2023-10-08T11:12:58;31.50;77.30
15900;DHT22;8048;50.644;6.184;2023-10-08T11:15:30;31.60;71.40
15900;DHT22;8048;50.644;6.184;2023-10-08T11:18:13;31.70;72.60
15900;DHT22;8048;50.644;6.184;2023-10-08T11:20:42;31.80;69.40
15900;DHT22;8048;50.644;6.184;2023-10-08T11:23:37;31.50;70.20
15900;DHT22;8048;50.644;6.184;2023-10-08T11:26:04;31.30;72.10
15900;DHT22;8048;50.644;6.184;2023-10-08T11:28:35;31.70;68.80
15900;DHT22;8048;50.644;6.184;2023-10-08T11:31:08;31.90;67.60
15900;DHT22;8048;50.644;6.184;2023-10-08T11:33:40;32.20;68.40
15900;DHT22;8048;50.644;6.184;2023-10-08T11:36:09;32.30;70.10
15900;DHT22;8048;50.644;6.184;2023-10-08T11:38:47;32.70;67.00
15900;DHT22;8048;50.644;6.184;2023-10-08T11:41:18;32.60;65.70
15900;DHT22;8048;50.644;6.184;2023-10-08T11:43:51;31.80;65.80
15900;DHT22;8048;50.644;6.184;2023-10-08T11:48:51;31.10;71.00
15900;DHT22;8048;50.644;6.184;2023-10-08T11:51:17;30.90;67.80
15900;DHT22;8048;50.644;6.184;2023-10-08T11:53:44;30.80;71.10
15900;DHT22;8048;50.644;6.184;2023-10-08T11:56:11;31.20;71.90
15900;DHT22;8048;50.644;6.184;2023-10-08T11:58:40;31.70;71.60
15900;DHT22;8048;50.644;6.184;2023-10-08T12:01:06;32.10;70.20
15900;DHT22;8048;50.644;6.184;2023-10-08T12:03:31;32.30;69.00
15900;DHT22;8048;50.644;6.184;2023-10-08T12:06:00;32.40;68.90
15900;DHT22;8048;50.644;6.184;2023-10-08T12:08:26;32.50;68.40
15900;DHT22;8048;50.644;6.184;2023-10-08T12:10:53;32.50;68.40
15900;DHT22;8048;50.644;6.184;2023-10-08T12:13:25;32.80;69.00
15900;DHT22;8048;50.644;6.184;2023-10-08T12:15:52;32.70;64.40
15900;DHT22;8048;50.644;6.184;2023-10-08T12:18:28;32.70;64.90
15900;DHT22;8048;50.644;6.184;2023-10-08T12:20:53;33.00;66.40
15900;DHT22;8048;50.644;6.184;2023-10-08T12:23:19;33.30;68.20
15900;DHT22;8048;50.644;6.184;2023-10-08T12:25:52;33.30;64.40
15900;DHT22;8048;50.644;6.184;2023-10-08T12:28:18;33.40;68.00
15900;DHT22;8048;50.644;6.184;2023-10-08T12:30:45;33.40;62.00
15900;DHT22;8048;50.644;6.184;2023-10-08T12:33:11;33.40;66.20
15900;DHT22;8048;50.644;6.184;2023-10-08T12:35:39;33.20;66.90
15900;DHT22;8048;50.644;6.184;2023-10-08T12:38:05;33.40;65.90
15900;DHT22;8048;50.644;6.184;2023-10-08T12:40:31;33.30;60.20
15900;DHT22;8048;50.644;6.184;2023-10-08T12:43:24;33.30;64.00
15900;DHT22;8048;50.644;6.184;2023-10-08T12:45:53;33.20;59.40
15900;DHT22;8048;50.644;6.184;2023-10-08T12:48:23;33.00;63.20
15900;DHT22;8048;50.644;6.184;2023-10-08T12:50:50;32.90;60.50
15900;DHT22;8048;50.644;6.184;2023-10-08T12:53:25;32.80;64.60
15900;DHT22;8048;50.644;6.184;2023-10-08T12:56:09;32.90;65.20
15900;DHT22;8048;50.644;6.184;2023-10-08T12:58:42;33.20;64.40
15900;DHT22;8048;50.644;6.184;2023-10-08T13:01:13;33.50;62.70
15900;DHT22;8048;50.644;6.184;2023-10-08T13:03:40;33.60;66.60
15900;DHT22;8048;50.644;6.184;2023-10-08T13:06:13;33.50;63.20
15900;DHT22;8048;50.644;6.184;2023-10-08T13:08:51;33.40;60.30
15900;DHT22;8048;50.644;6.184;2023-10-08T13:11:21;33.60;68.00
15900;DHT22;8048;50.644;6.184;2023-10-08T13:13:54;33.50;68.10
15900;DHT22;8048;50.644;6.184;2023-10-08T13:16:23;33.30;60.80
15900;DHT22;8048;50.644;6.184;2023-10-08T13:18:49;33.30;64.10
15900;DHT22;8048;50.644;6.184;2023-10-08T13:21:15;33.60;60.80
15900;DHT22;8048;50.644;6.184;2023-10-08T13:23:41;33.40;65.00
15900;DHT22;8048;50.644;6.184;2023-10-08T13:26:08;33.60;64.40
15900;DHT22;8048;50.644;6.184;2023-10-08T13:28:34;33.70;61.90
15900;DHT22;8048;50.644;6.184;2023-10-08T13:31:03;33.50;61.90
15900;DHT22;8048;50.644;6.184;2023-10-08T13:33:36;33.60;67.90
15900;DHT22;8048;50.644;6.184;2023-10-08T13:36:07;33.70;63.70
15900;DHT22;8048;50.644;6.184;2023-10-08T13:38:34;33.70;63.10
15900;DHT22;8048;50.644;6.184;2023-10-08T13:41:01;33.70;63.90
15900;DHT22;8048;50.644;6.184;2023-10-08T13:43:32;33.60;62.10
15900;DHT22;8048;50.644;6.184;2023-10-08T13:46:05;33.40;59.80
15900;DHT22;8048;50.644;6.184;2023-10-08T13:48:33;33.30;62.90
15900;DHT22;8048;50.644;6.184;2023-10-08T13:51:03;33.10;62.10
15900;DHT22;8048;50.644;6.184;2023-10-08T13:53:30;33.20;64.70
15900;DHT22;8048;50.644;6.184;2023-10-08T13:55:57;33.20;65.30
15900;DHT22;8048;50.644;6.184;2023-10-08T13:58:26;33.40;64.10
15900;DHT22;8048;50.644;6.184;2023-10-08T14:00:54;33.20;61.80
15900;DHT22;8048;50.644;6.184;2023-10-08T14:03:19;33.10;64.20
15900;DHT22;8048;50.644;6.184;2023-10-08T14:05:48;32.90;64.60
15900;DHT22;8048;50.644;6.184;2023-10-08T14:08:17;32.80;64.20
15900;DHT22;8048;50.644;6.184;2023-10-08T14:10:44;32.50;61.90
15900;DHT22;8048;50.644;6.184;2023-10-08T14:13:09;32.40;60.30
15900;DHT22;8048;50.644;6.184;2023-10-08T14:15:35;32.10;64.60
15900;DHT22;8048;50.644;6.184;2023-10-08T14:18:08;31.80;66.10
15900;DHT22;8048;50.644;6.184;2023-10-08T14:20:34;31.60;64.60
15900;DHT22;8048;50.644;6.184;2023-10-08T14:22:59;31.40;65.70
15900;DHT22;8048;50.644;6.184;2023-10-08T14:25:28;31.30;64.50
15900;DHT22;8048;50.644;6.184;2023-10-08T14:27:59;31.20;67.70
15900;DHT22;8048;50.644;6.184;2023-10-08T14:30:31;31.00;68.30
15900;DHT22;8048;50.644;6.184;2023-10-08T14:32:58;31.00;66.30
15900;DHT22;8048;50.644;6.184;2023-10-08T14:35:24;30.80;68.00
15900;DHT22;8048;50.644;6.184;2023-10-08T14:38:07;30.70;68.20
15900;DHT22;8048;50.644;6.184;2023-10-08T14:40:53;30.70;66.20
15900;DHT22;8048;50.644;6.184;2023-10-08T14:43:37;30.60;64.30
15900;DHT22;8048;50.644;6.184;2023-10-08T14:46:03;30.60;69.40
15900;DHT22;8048;50.644;6.184;2023-10-08T14:48:32;30.40;68.20
15900;DHT22;8048;50.644;6.184;2023-10-08T14:51:03;30.30;67.60
15900;DHT22;8048;50.644;6.184;2023-10-08T14:53:32;30.20;71.40
15900;DHT22;8048;50.644;6.184;2023-10-08T14:56:00;30.10;72.00
15900;DHT22;8048;50.644;6.184;2023-10-08T14:58:29;30.00;71.80
15900;DHT22;8048;50.644;6.184;2023-10-08T15:00:55;29.90;69.40
15900;DHT22;8048;50.644;6.184;2023-10-08T15:03:20;29.80;71.40
15900;DHT22;8048;50.644;6.184;2023-10-08T15:05:46;29.70;72.20
15900;DHT22;8048;50.644;6.184;2023-10-08T15:08:13;29.60;73.10
15900;DHT22;8048;50.644;6.184;2023-10-08T15:10:40;29.40;73.70
15900;DHT22;8048;50.644;6.184;2023-10-08T15:13:06;29.10;73.00
15900;DHT22;8048;50.644;6.184;2023-10-08T15:15:32;28.90;76.40
15900;DHT22;8048;50.644;6.184;2023-10-08T15:18:00;28.50;73.20
15900;DHT22;8048;50.644;6.184;2023-10-08T15:20:29;28.30;75.60
15900;DHT22;8048;50.644;6.184;2023-10-08T15:22:57;28.00;78.20
15900;DHT22;8048;50.644;6.184;2023-10-08T15:25:23;27.90;77.80
15900;DHT22;8048;50.644;6.184;2023-10-08T15:27:48;27.70;77.30
15900;DHT22;8048;50.644;6.184;2023-10-08T15:30:16;27.50;79.90
15900;DHT22;8048;50.644;6.184;2023-10-08T15:32:44;27.30;80.80
15900;DHT22;8048;50.644;6.184;2023-10-08T15:35:12;27.20;81.10
15900;DHT22;8048;50.644;6.184;2023-10-08T15:37:40;27.00;80.80
15900;DHT22;8048;50.644;6.184;2023-10-08T15:40:06;26.90;82.80
15900;DHT22;8048;50.644;6.184;2023-10-08T15:42:36;26.70;82.40
15900;DHT22;8048;50.644;6.184;2023-10-08T15:45:02;26.60;83.70
15900;DHT22;8048;50.644;6.184;2023-10-08T15:47:28;26.50;81.90
15900;DHT22;8048;50.644;6.184;2023-10-08T15:49:56;26.30;84.30
15900;DHT22;8048;50.644;6.184;2023-10-08T15:52:24;26.20;85.10
15900;DHT22;8048;50.644;6.184;2023-10-08T15:54:50;25.90;85.60
15900;DHT22;8048;50.644;6.184;2023-10-08T15:57:16;25.80;86.70
15900;DHT22;8048;50.644;6.184;2023-10-08T15:59:41;25.60;86.20
15900;DHT22;8048;50.644;6.184;2023-10-08T16:02:07;25.50;87.30
15900;DHT22;8048;50.644;6.184;2023-10-08T16:04:33;25.40;87.80
15900;DHT22;8048;50.644;6.184;2023-10-08T16:06:59;25.30;88.40
15900;DHT22;8048;50.644;6.184;2023-10-08T16:09:24;25.00;90.00
15900;DHT22;8048;50.644;6.184;2023-10-08T16:11:50;24.90;90.20
15900;DHT22;8048;50.644;6.184;2023-10-08T16:14:16;24.80;90.20